sensor_id;sensor_type;location;lat;lon;timestamp;temperature;humidity
28075;DHT22;15385;51.088;6.572;2023-03-23T00:02:30;14.20;99.90
28075;DHT22;15385;51.088;6.572;2023-03-23T00:05:05;14.20;99.90
28075;DHT22;15385;51.088;6.572;2023-03-23T00:07:37;14.20;99.90
28075;DHT22;15385;51.088;6.572;2023-03-23T00:10:08;14.30;99.90
28075;DHT22;15385;51.088;6.572;2023-03-23T00:12:38;14.30;99.90
28075;DHT22;15385;51.088;6.572;2023-03-23T00:15:12;14.20;99.90
28075;DHT22;15385;51.088;6.572;2023-03-23T00:17:43;14.20;99.90
28075;DHT22;15385;51.088;6.572;2023-03-23T00:20:13;14.30;99.90
28075;DHT22;15385;51.088;6.572;2023-03-23T00:22:44;14.30;99.90
28075;DHT22;15385;51.088;6.572;2023-03-23T00:25:15;14.30;99.90
28075;DHT22;15385;51.088;6.572;2023-03-23T00:27:46;14.30;99.90
28075;DHT22;15385;51.088;6.572;2023-03-23T00:30:17;14.40;99.90
28075;DHT22;15385;51.088;6.572;2023-03-23T00:32:48;14.40;99.90
28075;DHT22;15385;51.088;6.572;2023-03-23T00:35:18;14.40;99.90
28075;DHT22;15385;51.088;6.572;2023-03-23T00:37:50;14.40;99.90
28075;DHT22;15385;51.088;6.572;2023-03-23T00:40:20;14.40;99.90
28075;DHT22;15385;51.088;6.572;2023-03-23T00:42:51;14.40;99.90
28075;DHT22;15385;51.088;6.572;2023-03-23T00:45:21;14.40;99.90
28075;DHT22;15385;51.088;6.572;2023-03-23T00:47:51;14.40;99.90
28075;DHT22;15385;51.088;6.572;2023-03-23T00:50:22;14.50;99.90
28075;DHT22;15385;51.088;6.572;2023-03-23T00:52:53;14.40;99.90
28075;DHT22;15385;51.088;6.572;2023-03-23T00:55:26;14.40;99.90
28075;DHT22;15385;51.088;6.572;2023-03-23T00:57:57;14.40;99.90
28075;DHT22;15385;51.088;6.572;2023-03-23T01:00:27;14.40;99.90
28075;DHT22;15385;51.088;6.572;2023-03-23T01:02:58;14.40;99.90
28075;DHT22;15385;51.088;6.572;2023-03-23T01:05:28;14.40;99.90
28075;DHT22;15385;51.088;6.572;2023-03-23T01:08:02;14.40;99.90
28075;DHT22;15385;51.088;6.572;2023-03-23T01:10:33;14.30;99.90
28075;DHT22;15385;51.088;6.572;2023-03-23T01:13:04;14.30;99.90
28075;DHT22;15385;51.088;6.572;2023-03-23T01:15:34;14.30;99.90
28075;DHT22;15385;51.088;6.572;2023-03-23T01:18:06;14.30;99.90
28075;DHT22;15385;51.088;6.572;2023-03-23T01:20:36;14.30;99.90
28075;DHT22;15385;51.088;6.572;2023-03-23T01:23:07;14.20;99.90
28075;DHT22;15385;51.088;6.572;2023-03-23T01:25:38;14.20;99.90
28075;DHT22;15385;51.088;6.572;2023-03-23T01:28:09;14.20;99.90
28075;DHT22;15385;51.088;6.572;2023-03-23T01:30:40;14.20;99.90
28075;DHT22;15385;51.088;6.572;2023-03-23T01:33:11;14.20;99.90
28075;DHT22;15385;51.088;6.572;2023-03-23T01:35:41;14.10;99.90
28075;DHT22;15385;51.088;6.572;2023-03-23T01:38:12;14.00;99.90
28075;DHT22;15385;51.088;6.572;2023-03-23T01:40:43;13.90;99.90
28075;DHT22;15385;51.088;6.572;2023-03-23T01:43:14;13.80;99.90
28075;DHT22;15385;51.088;6.572;2023-03-23T01:45:45;13.80;99.90
28075;DHT22;15385;51.088;6.572;2023-03-23T01:48:29;13.80;99.90
28075;DHT22;15385;51.088;6.572;2023-03-23T01:51:04;13.70;99.90
28075;DHT22;15385;51.088;6.572;2023-03-23T01:53:40;13.70;99.90
28075;DHT22;15385;51.088;6.572;2023-03-23T01:56:12;13.60;99.90
28075;DHT22;15385;51.088;6.572;2023-03-23T01:58:44;13.70;99.90
28075;DHT22;15385;51.088;6.572;2023-03-23T02:01:15;13.50;99.90
28075;DHT22;15385;51.088;6.572;2023-03-23T02:03:45;13.50;99.90
28075;DHT22;15385;51.088;6.572;2023-03-23T02:06:16;13.50;99.90
28075;DHT22;15385;51.088;6.572;2023-03-23T02:08:47;13.50;99.90
28075;DHT22;15385;51.088;6.572;2023-03-23T02:11:19;13.50;99.90
28075;DHT22;15385;51.088;6.572;2023-03-23T02:13:50;13.50;99.90
28075;DHT22;15385;51.088;6.572;2023-03-23T02:26:47;13.60;99.90
28075;DHT22;15385;51.088;6.572;2023-03-23T02:32:19;13.60;99.90
28075;DHT22;15385;51.088;6.572;2023-03-23T02:34:49;13.60;99.90
28075;DHT22;15385;51.088;6.572;2023-03-23T02:39:52;13.70;99.90
28075;DHT22;15385;51.088;6.572;2023-03-23T02:42:29;13.70;99.90
28075;DHT22;15385;51.088;6.572;2023-03-23T02:45:02;13.70;99.90
28075;DHT22;15385;51.088;6.572;2023-03-23T02:47:34;13.70;99.90
28075;DHT22;15385;51.088;6.572;2023-03-23T02:50:07;13.70;99.90
28075;DHT22;15385;51.088;6.572;2023-03-23T02:52:39;13.70;99.90
28075;DHT22;15385;51.088;6.572;2023-03-23T02:55:10;13.70;99.90
28075;DHT22;15385;51.088;6.572;2023-03-23T02:57:41;13.70;99.90
28075;DHT22;15385;51.088;6.572;2023-03-23T03:00:15;13.60;99.90
28075;DHT22;15385;51.088;6.572;2023-03-23T03:02:46;13.70;99.90
28075;DHT22;15385;51.088;6.572;2023-03-23T03:10:25;13.70;99.90
28075;DHT22;15385;51.088;6.572;2023-03-23T03:13:21;13.70;99.90
28075;DHT22;15385;51.088;6.572;2023-03-23T03:18:44;13.70;99.90
28075;DHT22;15385;51.088;6.572;2023-03-23T03:21:17;13.70;99.90
28075;DHT22;15385;51.088;6.572;2023-03-23T03:23:50;13.70;99.90
28075;DHT22;15385;51.088;6.572;2023-03-23T03:26:21;13.70;99.90
28075;DHT22;15385;51.088;6.572;2023-03-23T03:28:56;13.60;99.90
28075;DHT22;15385;51.088;6.572;2023-03-23T03:31:36;13.80;99.90
28075;DHT22;15385;51.088;6.572;2023-03-23T03:34:08;13.70;99.90
28075;DHT22;15385;51.088;6.572;2023-03-23T03:36:39;13.80;99.90
28075;DHT22;15385;51.088;6.572;2023-03-23T03:39:11;13.90;99.90
28075;DHT22;15385;51.088;6.572;2023-03-23T03:41:42;13.90;99.90
28075;DHT22;15385;51.088;6.572;2023-03-23T03:44:13;13.80;99.90
28075;DHT22;15385;51.088;6.572;2023-03-23T03:46:44;13.80;99.90
28075;DHT22;15385;51.088;6.572;2023-03-23T03:49:14;13.70;99.90
28075;DHT22;15385;51.088;6.572;2023-03-23T03:51:45;13.80;99.90
28075;DHT22;15385;51.088;6.572;2023-03-23T03:54:15;13.80;99.90
28075;DHT22;15385;51.088;6.572;2023-03-23T03:56:46;13.80;99.90
28075;DHT22;15385;51.088;6.572;2023-03-23T03:59:17;13.80;99.90
28075;DHT22;15385;51.088;6.572;2023-03-23T04:01:47;13.80;99.90
28075;DHT22;15385;51.088;6.572;2023-03-23T04:04:24;13.80;99.90
28075;DHT22;15385;51.088;6.572;2023-03-23T04:06:54;13.90;99.90
28075;DHT22;15385;51.088;6.572;2023-03-23T04:09:25;13.80;99.90
28075;DHT22;15385;51.088;6.572;2023-03-23T04:11:57;13.80;99.90
28075;DHT22;15385;51.088;6.572;2023-03-23T04:14:27;13.80;99.90
28075;DHT22;15385;51.088;6.572;2023-03-23T04:16:58;13.90;99.90
28075;DHT22;15385;51.088;6.572;2023-03-23T04:19:29;13.90;99.90
28075;DHT22;15385;51.088;6.572;2023-03-23T04:22:04;13.90;99.90
28075;DHT22;15385;51.088;6.572;2023-03-23T04:24:34;13.80;99.90
28075;DHT22;15385;51.088;6.572;2023-03-23T04:27:05;13.80;99.90
28075;DHT22;15385;51.088;6.572;2023-03-23T04:29:36;13.80;99.90
28075;DHT22;15385;51.088;6.572;2023-03-23T04:32:06;13.80;99.90
28075;DHT22;15385;51.088;6.572;2023-03-23T04:34:37;13.80;99.90
28075;DHT22;15385;51.088;6.572;2023-03-23T04:37:07;13.80;99.90
28075;DHT22;15385;51.088;6.572;2023-03-23T04:39:38;13.90;99.90
28075;DHT22;15385;51.088;6.572;2023-03-23T04:42:10;13.90;99.90
28075;DHT22;15385;51.088;6.572;2023-03-23T04:44:41;13.80;99.90
28075;DHT22;15385;51.088;6.572;2023-03-23T04:47:13;13.90;99.90
28075;DHT22;15385;51.088;6.572;2023-03-23T04:49:47;13.90;99.90
28075;DHT22;15385;51.088;6.572;2023-03-23T04:52:18;13.90;99.90
28075;DHT22;15385;51.088;6.572;2023-03-23T04:54:50;13.90;99.90
28075;DHT22;15385;51.088;6.572;2023-03-23T04:57:21;13.90;99.90
28075;DHT22;15385;51.088;6.572;2023-03-23T04:59:52;13.90;99.90
28075;DHT22;15385;51.088;6.572;2023-03-23T05:02:22;13.90;99.90
28075;DHT22;15385;51.088;6.572;2023-03-23T05:04:53;13.80;99.90
28075;DHT22;15385;51.088;6.572;2023-03-23T05:07:23;13.80;99.90
28075;DHT22;15385;51.088;6.572;2023-03-23T05:09:54;13.80;99.90
28075;DHT22;15385;51.088;6.572;2023-03-23T05:12:25;13.80;99.90
28075;DHT22;15385;51.088;6.572;2023-03-23T05:14:55;13.80;99.90
28075;DHT22;15385;51.088;6.572;2023-03-23T05:17:26;13.80;99.90
28075;DHT22;15385;51.088;6.572;2023-03-23T05:19:57;13.80;99.90
28075;DHT22;15385;51.088;6.572;2023-03-23T05:22:27;13.80;99.90
28075;DHT22;15385;51.088;6.572;2023-03-23T05:24:58;13.80;99.90
28075;DHT22;15385;51.088;6.572;2023-03-23T05:27:29;13.80;99.90
28075;DHT22;15385;51.088;6.572;2023-03-23T05:30:00;13.80;99.90
28075;DHT22;15385;51.088;6.572;2023-03-23T05:32:31;13.80;99.90
28075;DHT22;15385;51.088;6.572;2023-03-23T05:35:02;13.70;99.90
28075;DHT22;15385;51.088;6.572;2023-03-23T05:37:33;13.80;99.90
28075;DHT22;15385;51.088;6.572;2023-03-23T05:40:04;13.70;99.90
28075;DHT22;15385;51.088;6.572;2023-03-23T05:42:36;13.70;99.90
28075;DHT22;15385;51.088;6.572;2023-03-23T05:45:07;13.70;99.90
28075;DHT22;15385;51.088;6.572;2023-03-23T05:47:39;13.70;99.90
28075;DHT22;15385;51.088;6.572;2023-03-23T05:50:10;13.70;99.90
28075;DHT22;15385;51.088;6.572;2023-03-23T05:52:41;13.60;99.90
28075;DHT22;15385;51.088;6.572;2023-03-23T05:55:11;13.50;99.90
28075;DHT22;15385;51.088;6.572;2023-03-23T05:57:42;13.60;99.90
28075;DHT22;15385;51.088;6.572;2023-03-23T06:00:13;13.60;99.90
28075;DHT22;15385;51.088;6.572;2023-03-23T06:02:44;13.60;99.90
28075;DHT22;15385;51.088;6.572;2023-03-23T06:05:16;13.60;99.90
28075;DHT22;15385;51.088;6.572;2023-03-23T06:07:46;13.60;99.90
28075;DHT22;15385;51.088;6.572;2023-03-23T06:10:17;13.70;99.90
28075;DHT22;15385;51.088;6.572;2023-03-23T06:12:48;13.60;99.90
28075;DHT22;15385;51.088;6.572;2023-03-23T06:15:19;13.60;99.90
28075;DHT22;15385;51.088;6.572;2023-03-23T06:17:50;13.60;99.90
28075;DHT22;15385;51.088;6.572;2023-03-23T06:20:26;13.70;99.90
28075;DHT22;15385;51.088;6.572;2023-03-23T06:22:56;13.60;99.90
28075;DHT22;15385;51.088;6.572;2023-03-23T06:25:27;13.60;99.90
28075;DHT22;15385;51.088;6.572;2023-03-23T06:27:58;13.70;99.90
28075;DHT22;15385;51.088;6.572;2023-03-23T06:30:29;13.80;99.90
28075;DHT22;15385;51.088;6.572;2023-03-23T06:33:00;13.80;99.90
28075;DHT22;15385;51.088;6.572;2023-03-23T06:35:32;13.80;99.90
28075;DHT22;15385;51.088;6.572;2023-03-23T06:38:02;13.80;99.90
28075;DHT22;15385;51.088;6.572;2023-03-23T06:40:33;13.80;99.90
28075;DHT22;15385;51.088;6.572;2023-03-23T06:43:03;13.80;99.90
28075;DHT22;15385;51.088;6.572;2023-03-23T06:45:34;13.90;99.90
28075;DHT22;15385;51.088;6.572;2023-03-23T06:48:05;13.80;99.90
28075;DHT22;15385;51.088;6.572;2023-03-23T06:50:35;13.80;99.90
28075;DHT22;15385;51.088;6.572;2023-03-23T06:53:06;13.80;99.90
28075;DHT22;15385;51.088;6.572;2023-03-23T06:55:37;13.80;99.90
28075;DHT22;15385;51.088;6.572;2023-03-23T06:58:08;13.80;99.90
28075;DHT22;15385;51.088;6.572;2023-03-23T07:00:38;13.80;99.90
28075;DHT22;15385;51.088;6.572;2023-03-23T07:03:10;13.80;99.90
28075;DHT22;15385;51.088;6.572;2023-03-23T07:05:41;13.90;99.90
28075;DHT22;15385;51.088;6.572;2023-03-23T07:08:12;13.90;99.90
28075;DHT22;15385;51.088;6.572;2023-03-23T07:10:42;13.80;99.90
28075;DHT22;15385;51.088;6.572;2023-03-23T07:13:13;13.80;99.90
28075;DHT22;15385;51.088;6.572;2023-03-23T07:15:44;13.90;99.90
28075;DHT22;15385;51.088;6.572;2023-03-23T07:18:14;13.90;99.90
28075;DHT22;15385;51.088;6.572;2023-03-23T07:20:49;13.90;99.90
28075;DHT22;15385;51.088;6.572;2023-03-23T07:23:20;14.00;99.90
28075;DHT22;15385;51.088;6.572;2023-03-23T07:25:51;14.10;99.90
28075;DHT22;15385;51.088;6.572;2023-03-23T07:28:22;14.00;99.90
28075;DHT22;15385;51.088;6.572;2023-03-23T07:30:53;14.00;99.90
28075;DHT22;15385;51.088;6.572;2023-03-23T07:33:23;14.10;99.90
28075;DHT22;15385;51.088;6.572;2023-03-23T07:35:53;14.10;99.90
28075;DHT22;15385;51.088;6.572;2023-03-23T07:38:24;14.00;99.90
28075;DHT22;15385;51.088;6.572;2023-03-23T07:40:57;14.10;99.90
28075;DHT22;15385;51.088;6.572;2023-03-23T07:43:28;14.10;99.90
28075;DHT22;15385;51.088;6.572;2023-03-23T07:45:59;14.10;99.90
28075;DHT22;15385;51.088;6.572;2023-03-23T07:48:29;14.10;99.90
28075;DHT22;15385;51.088;6.572;2023-03-23T07:51:00;14.20;99.90
28075;DHT22;15385;51.088;6.572;2023-03-23T07:53:31;14.20;99.90
28075;DHT22;15385;51.088;6.572;2023-03-23T07:56:02;14.30;99.90
28075;DHT22;15385;51.088;6.572;2023-03-23T07:58:33;14.20;99.90
28075;DHT22;15385;51.088;6.572;2023-03-23T08:01:04;14.30;99.90
28075;DHT22;15385;51.088;6.572;2023-03-23T08:03:34;14.30;99.90
28075;DHT22;15385;51.088;6.572;2023-03-23T08:06:05;14.30;99.90
28075;DHT22;15385;51.088;6.572;2023-03-23T08:08:36;14.30;99.90
28075;DHT22;15385;51.088;6.572;2023-03-23T08:11:07;14.30;99.90
28075;DHT22;15385;51.088;6.572;2023-03-23T08:13:37;14.30;99.90
28075;DHT22;15385;51.088;6.572;2023-03-23T08:16:08;14.30;99.90
28075;DHT22;15385;51.088;6.572;2023-03-23T08:18:39;14.40;99.90
28075;DHT22;15385;51.088;6.572;2023-03-23T08:21:10;14.40;99.90
28075;DHT22;15385;51.088;6.572;2023-03-23T08:23:40;14.40;99.90
28075;DHT22;15385;51.088;6.572;2023-03-23T08:26:12;14.50;99.90
28075;DHT22;15385;51.088;6.572;2023-03-23T08:28:42;14.50;99.90
28075;DHT22;15385;51.088;6.572;2023-03-23T08:31:14;14.60;99.90
28075;DHT22;15385;51.088;6.572;2023-03-23T08:33:44;14.60;99.90
28075;DHT22;15385;51.088;6.572;2023-03-23T08:36:15;14.60;99.90
28075;DHT22;15385;51.088;6.572;2023-03-23T08:38:46;14.60;99.90
28075;DHT22;15385;51.088;6.572;2023-03-23T08:41:16;14.60;99.90
28075;DHT22;15385;51.088;6.572;2023-03-23T08:43:47;14.70;99.90
28075;DHT22;15385;51.088;6.572;2023-03-23T08:46:17;14.80;99.90
28075;DHT22;15385;51.088;6.572;2023-03-23T08:48:49;14.80;99.90
28075;DHT22;15385;51.088;6.572;2023-03-23T08:51:20;14.80;99.90
28075;DHT22;15385;51.088;6.572;2023-03-23T08:53:52;14.90;99.90
28075;DHT22;15385;51.088;6.572;2023-03-23T08:56:22;14.90;99.90
28075;DHT22;15385;51.088;6.572;2023-03-23T08:58:53;14.90;99.90
28075;DHT22;15385;51.088;6.572;2023-03-23T09:01:24;14.90;99.90
28075;DHT22;15385;51.088;6.572;2023-03-23T09:03:54;15.00;99.90
28075;DHT22;15385;51.088;6.572;2023-03-23T09:06:25;14.90;99.90
28075;DHT22;15385;51.088;6.572;2023-03-23T09:08:56;14.90;99.90
28075;DHT22;15385;51.088;6.572;2023-03-23T09:11:26;14.90;99.90
28075;DHT22;15385;51.088;6.572;2023-03-23T09:13:56;14.90;99.90
28075;DHT22;15385;51.088;6.572;2023-03-23T09:16:27;15.00;99.90
28075;DHT22;15385;51.088;6.572;2023-03-23T09:18:58;14.90;99.90
28075;DHT22;15385;51.088;6.572;2023-03-23T09:21:29;14.90;99.90
28075;DHT22;15385;51.088;6.572;2023-03-23T09:23:59;15.00;99.90
28075;DHT22;15385;51.088;6.572;2023-03-23T09:26:31;15.00;99.90
28075;DHT22;15385;51.088;6.572;2023-03-23T09:29:02;15.00;99.90
28075;DHT22;15385;51.088;6.572;2023-03-23T09:31:33;14.90;99.90
28075;DHT22;15385;51.088;6.572;2023-03-23T09:34:03;14.90;99.90
28075;DHT22;15385;51.088;6.572;2023-03-23T09:36:34;14.90;99.90
28075;DHT22;15385;51.088;6.572;2023-03-23T09:39:05;14.90;99.90
28075;DHT22;15385;51.088;6.572;2023-03-23T09:46:52;14.80;99.90
28075;DHT22;15385;51.088;6.572;2023-03-23T09:49:28;14.80;99.90
28075;DHT22;15385;51.088;6.572;2023-03-23T09:52:01;14.80;99.90
28075;DHT22;15385;51.088;6.572;2023-03-23T09:57:05;14.90;99.90
28075;DHT22;15385;51.088;6.572;2023-03-23T10:02:28;14.90;99.90
28075;DHT22;15385;51.088;6.572;2023-03-23T10:05:23;14.90;99.90
28075;DHT22;15385;51.088;6.572;2023-03-23T10:07:55;14.90;99.90
28075;DHT22;15385;51.088;6.572;2023-03-23T10:10:31;14.80;99.90
28075;DHT22;15385;51.088;6.572;2023-03-23T10:13:05;14.80;99.90
28075;DHT22;15385;51.088;6.572;2023-03-23T10:15:39;14.70;99.90
28075;DHT22;15385;51.088;6.572;2023-03-23T10:18:15;14.50;99.90
28075;DHT22;15385;51.088;6.572;2023-03-23T10:20:57;14.40;99.90
28075;DHT22;15385;51.088;6.572;2023-03-23T10:31:39;14.00;99.90
28075;DHT22;15385;51.088;6.572;2023-03-23T10:34:21;14.00;99.90
28075;DHT22;15385;51.088;6.572;2023-03-23T10:37:01;13.90;99.90
28075;DHT22;15385;51.088;6.572;2023-03-23T10:39:37;13.80;99.90
28075;DHT22;15385;51.088;6.572;2023-03-23T10:42:09;13.80;99.90
28075;DHT22;15385;51.088;6.572;2023-03-23T10:44:39;13.60;99.90
28075;DHT22;15385;51.088;6.572;2023-03-23T10:47:10;13.70;99.90
28075;DHT22;15385;51.088;6.572;2023-03-23T11:55:55;14.40;99.90
28075;DHT22;15385;51.088;6.572;2023-03-23T11:58:28;14.50;99.90
28075;DHT22;15385;51.088;6.572;2023-03-23T12:01:10;14.60;99.90
28075;DHT22;15385;51.088;6.572;2023-03-23T12:03:47;14.70;99.90
28075;DHT22;15385;51.088;6.572;2023-03-23T12:07:10;14.70;99.90
28075;DHT22;15385;51.088;6.572;2023-03-23T12:38:53;15.70;99.90
28075;DHT22;15385;51.088;6.572;2023-03-23T12:44:06;15.80;99.90
28075;DHT22;15385;51.088;6.572;2023-03-23T13:04:41;15.80;99.90
28075;DHT22;15385;51.088;6.572;2023-03-23T13:07:17;15.80;99.90
28075;DHT22;15385;51.088;6.572;2023-03-23T13:12:39;15.80;99.90
28075;DHT22;15385;51.088;6.572;2023-03-23T13:18:07;15.60;99.90
28075;DHT22;15385;51.088;6.572;2023-03-23T13:23:21;15.40;99.90
28075;DHT22;15385;51.088;6.572;2023-03-23T13:25:54;15.40;99.90
28075;DHT22;15385;51.088;6.572;2023-03-23T13:28:30;15.40;99.90
28075;DHT22;15385;51.088;6.572;2023-03-23T13:31:11;15.40;99.90
28075;DHT22;15385;51.088;6.572;2023-03-23T13:33:49;15.30;99.90
28075;DHT22;15385;51.088;6.572;2023-03-23T13:36:26;15.20;99.90
28075;DHT22;15385;51.088;6.572;2023-03-23T13:38:57;15.20;99.90
28075;DHT22;15385;51.088;6.572;2023-03-23T13:41:29;15.10;99.90
28075;DHT22;15385;51.088;6.572;2023-03-23T13:46:57;15.10;99.90
28075;DHT22;15385;51.088;6.572;2023-03-23T13:49:28;15.10;99.90
28075;DHT22;15385;51.088;6.572;2023-03-23T13:52:14;15.00;99.90
28075;DHT22;15385;51.088;6.572;2023-03-23T13:54:46;15.00;99.90
28075;DHT22;15385;51.088;6.572;2023-03-23T13:57:25;14.90;99.90
28075;DHT22;15385;51.088;6.572;2023-03-23T13:59:57;14.90;99.90
28075;DHT22;15385;51.088;6.572;2023-03-23T14:05:09;14.90;99.90
28075;DHT22;15385;51.088;6.572;2023-03-23T14:08:03;14.80;99.90
28075;DHT22;15385;51.088;6.572;2023-03-23T14:10:51;14.90;99.90
28075;DHT22;15385;51.088;6.572;2023-03-23T14:13:34;14.90;99.90
28075;DHT22;15385;51.088;6.572;2023-03-23T14:16:14;15.20;99.90
28075;DHT22;15385;51.088;6.572;2023-03-23T14:18:50;15.20;99.90
28075;DHT22;15385;51.088;6.572;2023-03-23T14:21:24;15.20;99.90
28075;DHT22;15385;51.088;6.572;2023-03-23T14:23:55;15.30;99.90
28075;DHT22;15385;51.088;6.572;2023-03-23T14:26:26;15.30;99.90
28075;DHT22;15385;51.088;6.572;2023-03-23T14:28:57;15.40;99.90
28075;DHT22;15385;51.088;6.572;2023-03-23T14:31:29;15.30;99.90
28075;DHT22;15385;51.088;6.572;2023-03-23T14:34:01;15.20;99.90
28075;DHT22;15385;51.088;6.572;2023-03-23T14:36:33;15.20;99.90
28075;DHT22;15385;51.088;6.572;2023-03-23T14:39:16;15.00;99.90
28075;DHT22;15385;51.088;6.572;2023-03-23T14:41:47;14.90;99.90
28075;DHT22;15385;51.088;6.572;2023-03-23T14:44:29;14.80;99.90
28075;DHT22;15385;51.088;6.572;2023-03-23T14:47:05;14.80;99.90
28075;DHT22;15385;51.088;6.572;2023-03-23T14:50:00;14.60;99.90
28075;DHT22;15385;51.088;6.572;2023-03-23T14:52:35;14.70;99.90
28075;DHT22;15385;51.088;6.572;2023-03-23T14:55:14;14.60;99.90
28075;DHT22;15385;51.088;6.572;2023-03-23T14:57:47;14.60;99.90
28075;DHT22;15385;51.088;6.572;2023-03-23T15:00:20;14.60;99.90
28075;DHT22;15385;51.088;6.572;2023-03-23T15:02:52;15.00;99.90
28075;DHT22;15385;51.088;6.572;2023-03-23T15:05:34;15.40;99.90
28075;DHT22;15385;51.088;6.572;2023-03-23T15:08:08;15.80;99.90
28075;DHT22;15385;51.088;6.572;2023-03-23T15:10:42;16.00;99.90
28075;DHT22;15385;51.088;6.572;2023-03-23T15:13:21;16.30;99.90
28075;DHT22;15385;51.088;6.572;2023-03-23T15:15:51;16.60;99.90
28075;DHT22;15385;51.088;6.572;2023-03-23T15:18:32;16.70;99.90
28075;DHT22;15385;51.088;6.572;2023-03-23T15:21:08;16.80;99.90
28075;DHT22;15385;51.088;6.572;2023-03-23T15:23:42;17.10;99.90
28075;DHT22;15385;51.088;6.572;2023-03-23T15:26:21;17.30;99.90
28075;DHT22;15385;51.088;6.572;2023-03-23T15:29:04;17.30;99.90
28075;DHT22;15385;51.088;6.572;2023-03-23T15:31:42;17.20;99.90
28075;DHT22;15385;51.088;6.572;2023-03-23T15:34:18;17.30;99.90
28075;DHT22;15385;51.088;6.572;2023-03-23T15:36:52;17.30;99.90
28075;DHT22;15385;51.088;6.572;2023-03-23T15:39:24;17.20;99.90
28075;DHT22;15385;51.088;6.572;2023-03-23T15:41:56;17.00;99.90
28075;DHT22;15385;51.088;6.572;2023-03-23T15:47:17;16.80;99.90
28075;DHT22;15385;51.088;6.572;2023-03-23T15:49:58;16.60;99.90
28075;DHT22;15385;51.088;6.572;2023-03-23T15:52:29;16.50;99.90
28075;DHT22;15385;51.088;6.572;2023-03-23T15:54:59;16.50;99.90
28075;DHT22;15385;51.088;6.572;2023-03-23T15:57:30;16.60;99.90
28075;DHT22;15385;51.088;6.572;2023-03-23T16:00:01;16.70;99.90
28075;DHT22;15385;51.088;6.572;2023-03-23T16:02:31;16.80;99.90
28075;DHT22;15385;51.088;6.572;2023-03-23T16:05:03;16.70;99.90
28075;DHT22;15385;51.088;6.572;2023-03-23T16:07:34;16.70;99.90
28075;DHT22;15385;51.088;6.572;2023-03-23T16:10:05;16.70;99.90
28075;DHT22;15385;51.088;6.572;2023-03-23T16:12:36;16.80;99.90
28075;DHT22;15385;51.088;6.572;2023-03-23T16:15:06;16.90;99.90
28075;DHT22;15385;51.088;6.572;2023-03-23T16:17:38;17.00;99.90
28075;DHT22;15385;51.088;6.572;2023-03-23T16:20:12;17.00;99.90
28075;DHT22;15385;51.088;6.572;2023-03-23T16:22:44;17.00;99.90
28075;DHT22;15385;51.088;6.572;2023-03-23T16:25:15;16.90;99.90
28075;DHT22;15385;51.088;6.572;2023-03-23T16:27:46;16.80;99.90
28075;DHT22;15385;51.088;6.572;2023-03-23T16:30:21;16.80;99.90
28075;DHT22;15385;51.088;6.572;2023-03-23T16:32:52;16.80;99.90
28075;DHT22;15385;51.088;6.572;2023-03-23T16:35:23;16.80;99.90
28075;DHT22;15385;51.088;6.572;2023-03-23T16:37:54;16.80;99.90
28075;DHT22;15385;51.088;6.572;2023-03-23T16:40:25;16.70;99.90
28075;DHT22;15385;51.088;6.572;2023-03-23T16:42:56;16.50;99.90
28075;DHT22;15385;51.088;6.572;2023-03-23T16:45:26;16.40;99.90
28075;DHT22;15385;51.088;6.572;2023-03-23T16:47:57;16.40;99.90
28075;DHT22;15385;51.088;6.572;2023-03-23T16:50:30;16.30;99.90
28075;DHT22;15385;51.088;6.572;2023-03-23T16:53:01;16.30;99.90
28075;DHT22;15385;51.088;6.572;2023-03-23T16:55:32;16.30;99.90
28075;DHT22;15385;51.088;6.572;2023-03-23T16:58:03;16.20;99.90
28075;DHT22;15385;51.088;6.572;2023-03-23T17:00:33;16.20;99.90
28075;DHT22;15385;51.088;6.572;2023-03-23T17:03:04;16.20;99.90
28075;DHT22;15385;51.088;6.572;2023-03-23T17:05:35;16.20;99.90
28075;DHT22;15385;51.088;6.572;2023-03-23T17:08:06;16.30;99.90
28075;DHT22;15385;51.088;6.572;2023-03-23T17:10:37;16.20;99.90
28075;DHT22;15385;51.088;6.572;2023-03-23T17:13:08;16.20;99.90
28075;DHT22;15385;51.088;6.572;2023-03-23T17:15:39;16.20;99.90
28075;DHT22;15385;51.088;6.572;2023-03-23T17:18:10;16.10;99.90
28075;DHT22;15385;51.088;6.572;2023-03-23T17:20:41;16.10;99.90
28075;DHT22;15385;51.088;6.572;2023-03-23T17:23:11;16.00;99.90
28075;DHT22;15385;51.088;6.572;2023-03-23T17:25:43;16.00;99.90
28075;DHT22;15385;51.088;6.572;2023-03-23T17:28:13;16.10;99.90
28075;DHT22;15385;51.088;6.572;2023-03-23T17:30:44;16.00;99.90
28075;DHT22;15385;51.088;6.572;2023-03-23T17:33:14;16.00;99.90
28075;DHT22;15385;51.088;6.572;2023-03-23T17:35:45;16.00;99.90
28075;DHT22;15385;51.088;6.572;2023-03-23T17:38:16;16.00;99.90
28075;DHT22;15385;51.088;6.572;2023-03-23T17:40:47;16.00;99.90
28075;DHT22;15385;51.088;6.572;2023-03-23T17:43:17;16.00;99.90
28075;DHT22;15385;51.088;6.572;2023-03-23T17:45:48;15.90;99.90
28075;DHT22;15385;51.088;6.572;2023-03-23T17:48:18;15.90;99.90
28075;DHT22;15385;51.088;6.572;2023-03-23T17:50:52;15.80;99.90
28075;DHT22;15385;51.088;6.572;2023-03-23T17:53:23;15.80;99.90
28075;DHT22;15385;51.088;6.572;2023-03-23T17:55:55;15.70;99.90
28075;DHT22;15385;51.088;6.572;2023-03-23T17:58:25;15.70;99.90
28075;DHT22;15385;51.088;6.572;2023-03-23T18:00:56;15.70;99.90
28075;DHT22;15385;51.088;6.572;2023-03-23T18:03:26;15.60;99.90
28075;DHT22;15385;51.088;6.572;2023-03-23T18:05:58;15.70;99.90
28075;DHT22;15385;51.088;6.572;2023-03-23T18:08:29;15.70;99.90
28075;DHT22;15385;51.088;6.572;2023-03-23T18:11:00;15.70;99.90
28075;DHT22;15385;51.088;6.572;2023-03-23T18:13:31;15.70;99.90
28075;DHT22;15385;51.088;6.572;2023-03-23T18:16:02;15.60;99.90
28075;DHT22;15385;51.088;6.572;2023-03-23T18:18:33;15.70;99.90
28075;DHT22;15385;51.088;6.572;2023-03-23T18:21:05;15.60;99.90
28075;DHT22;15385;51.088;6.572;2023-03-23T18:23:36;15.50;99.90
28075;DHT22;15385;51.088;6.572;2023-03-23T18:26:08;15.50;99.90
28075;DHT22;15385;51.088;6.572;2023-03-23T18:28:40;15.40;99.90
28075;DHT22;15385;51.088;6.572;2023-03-23T18:31:11;15.40;99.90
28075;DHT22;15385;51.088;6.572;2023-03-23T18:33:42;15.40;99.90
28075;DHT22;15385;51.088;6.572;2023-03-23T18:36:16;15.40;99.90
28075;DHT22;15385;51.088;6.572;2023-03-23T18:38:47;15.40;99.90
28075;DHT22;15385;51.088;6.572;2023-03-23T18:41:18;15.30;99.90
28075;DHT22;15385;51.088;6.572;2023-03-23T18:43:48;15.40;99.90
28075;DHT22;15385;51.088;6.572;2023-03-23T18:46:19;15.30;99.90
28075;DHT22;15385;51.088;6.572;2023-03-23T18:48:49;15.40;99.90
28075;DHT22;15385;51.088;6.572;2023-03-23T18:51:20;15.30;99.90
28075;DHT22;15385;51.088;6.572;2023-03-23T18:53:50;15.30;99.90
28075;DHT22;15385;51.088;6.572;2023-03-23T18:56:21;15.20;99.90
28075;DHT22;15385;51.088;6.572;2023-03-23T18:58:51;15.20;99.90